• Join FlightAware (Why Join?)
  • Login
  • US Flag 
02:21AM EST


 

Airport Tracker/Info


-or-


 

Live Flight TrackerFlight Track Log ✈ DAL3672 ✈ 18-Apr-2013 ✈ KDTW - KMHT

Flight Track Log - Related Links

Times and Time Zones

All times are in EDT time to prevent confusion due to time zone crossing. See the DAL3672 flight status page for this flight to view local times or setup timezone preferences in your user account.

Time Position Orientation Groundspeed Altitude Reporting Facility
EDT Latitude Longitude Course Direction KTS MPH feet Rate Location/Type
10:27AM 42.2014 -83.3536 94° East 138 159 1,500  Level FAA TRACON SMA TRACON (SMA)
10:27AM 42.1869 -83.3519 175° South 140 161 2,200 1,650 Climbing FAA TRACON SMA TRACON (SMA)
10:28AM 42.1753 -83.3508 176° South 158 182 2,600 1,800 Climbing FAA TRACON SMA TRACON (SMA)
10:28AM 42.1581 -83.3469 170° South 169 194 3,400 1,800 Climbing FAA TRACON SMA TRACON (SMA)
10:28AM 42.1428 -83.3419 166° South 188 216 3,800 1,350 Climbing FAA TRACON SMA TRACON (SMA)
10:29AM 42.1222 -83.3361 168° South 201 231 4,300 1,610 Climbing FAA TRACON SMA TRACON (SMA)
10:29AM 42.1039 -83.3314 169° South 215 247 4,900 1,800 Climbing FAA TRACON SMA TRACON (SMA)
10:29AM 42.0844 -83.3269 170° South 226 260 5,500 1,846 Climbing FAA TRACON SMA TRACON (SMA)
10:30AM 42.3155 -82.7160 78° East  Level FlightAware Approximate
10:30AM 42.0656 -83.3117 149° Southeast 269 310 6,100  Level FAA TRACON SMA TRACON (SMA)
10:30AM 42.0553 -83.2728 110° East 305 351 7,100 2,550 Climbing FAA TRACON SMA TRACON (SMA)
10:30AM 42.0597 -83.2389 80° East 330 380 7,800 2,341 Climbing FAA TRACON SMA TRACON (SMA)
10:31AM 42.3382 -82.5542 77° East  Level FlightAware Approximate
10:31AM 42.0739 -83.1922 68° East 332 382 8,700  Level FAA TRACON SMA TRACON (SMA)
10:31AM 42.0881 -83.1572 61° Northeast 336 387 9,500 2,308 Climbing FAA TRACON SMA TRACON (SMA)
10:31AM 42.1022 -83.1225 61° Northeast 340 391 10,200 1,650 Climbing FAA TRACON SMA TRACON (SMA)
10:32AM 42.3638 -82.3979 94° East  Level FlightAware Approximate
10:32AM 42.1189 -83.0811 61° Northeast 350 403 10,600  Level FAA TRACON SMA TRACON (SMA)
10:32AM 42.1350 -83.0400 62° Northeast 374 430 11,000 1,050 Climbing FAA TRACON SMA TRACON (SMA)
10:32AM 42.1506 -83.0008 62° Northeast 369 425 11,300 1,200 Climbing FAA TRACON SMA TRACON (SMA)
10:33AM 42.1700 -82.9542 61° Northeast 395 455 11,800 1,610 Climbing FAA TRACON SMA TRACON (SMA)
10:33AM 42.1875 -82.9103 62° Northeast 398 458 12,400 1,463 Climbing FAA TRACON SMA TRACON (SMA)
10:33AM 42.2039 -82.8692 62° Northeast 401 461 12,800 1,538 Climbing FAA TRACON SMA TRACON (SMA)
10:34AM 42.2247 -82.8172 62° Northeast 407 468 13,400 1,692 Climbing FAA TRACON SMA TRACON (SMA)
10:34AM 42.2414 -82.7750 62° Northeast 411 473 13,900 1,286 Climbing FAA TRACON SMA TRACON (SMA)
10:34AM 42.2586 -82.7325 61° Northeast 415 478 14,300 1,429 Climbing FAA TRACON SMA TRACON (SMA)
10:35AM 42.2797 -82.6792 62° Northeast 419 482 14,900 1,650 Climbing FAA TRACON SMA TRACON (SMA)
10:35AM 42.2967 -82.6361 62° Northeast 419 482 15,400 1,538 Climbing FAA TRACON SMA TRACON (SMA)
10:35AM 42.3031 -82.5892 80° East 412 474 15,900 1,538 Climbing FAA TRACON SMA TRACON (SMA)
10:36AM 42.3025 -82.5311 91° East 403 464 16,400 1,500 Climbing FAA TRACON SMA TRACON (SMA)
10:36AM 42.3022 -82.4844 90° East 405 466 16,900 1,385 Climbing FAA TRACON SMA TRACON (SMA)
10:36AM 42.3014 -82.4372 91° East 407 468 17,300 1,200 Climbing FAA TRACON SMA TRACON (SMA)
10:37AM 42.3006 -82.3778 91° East 409 471 17,700 1,317 Climbing FAA TRACON SMA TRACON (SMA)
10:37AM 42.2994 -82.3297 92° East 414 476 18,200 1,350 Climbing FAA TRACON SMA TRACON (SMA)
10:37AM 42.2978 -82.2811 93° East 418 481 18,600 1,050 Climbing FAA TRACON SMA TRACON (SMA)
10:38AM 42.2942 -82.2197 95° East 398 458 18,900 900 Climbing Cleveland Center
10:39AM 42.2922 -82.0736 91° East 423 487 19,800 950 Climbing Cleveland Center
10:40AM 42.2900 -81.9108 91° East 428 493 20,800 1,050 Climbing Cleveland Center
10:41AM 42.2856 -81.7450 92° East 434 499 21,900 1,050 Climbing Cleveland Center
10:42AM 42.2808 -81.5822 92° East 441 507 22,900 1,000 Climbing Cleveland Center
10:43AM 42.2739 -81.4053 93° East 441 507 23,900 1,000 Climbing Cleveland Center
10:44AM 42.2708 -81.2397 91° East 441 507 24,900 850 Climbing Cleveland Center
10:45AM 42.2653 -81.0714 92° East 441 507 25,600 700 Climbing Cleveland Center
10:46AM 42.2617 -80.9058 92° East 441 507 26,300 700 Climbing Cleveland Center
10:47AM 42.2539 -80.7403 94° East 446 513 27,000 700 Climbing Cleveland Center
10:48AM 42.2497 -80.5692 92° East 446 513 27,700 650 Climbing Cleveland Center
10:49AM 42.2433 -80.4008 93° East 446 513 28,300 550 Climbing Cleveland Center
10:50AM 42.2367 -80.2269 93° East 452 520 28,800 350 Climbing Cleveland Center
10:51AM 42.2297 -80.0756 93° East 452 520 29,000 100 Climbing Cleveland Center
10:52AM 42.2228 -79.9047 93° East 457 526 29,000  Level Cleveland Center
10:53AM 42.2172 -79.7086 92° East 470 541 29,000  Level Cleveland Center
10:54AM 42.2094 -79.5347 93° East 475 547 29,000  Level Cleveland Center
10:55AM 42.1994 -79.3611 94° East 465 535 29,000  Level Cleveland Center
10:56AM 42.1933 -79.1903 93° East 458 527 29,000  Level Cleveland Center
10:57AM 42.2036 -79.0219 85° East 458 527 29,000  Level Cleveland Center
10:58AM 42.2203 -78.8672 82° East 458 527 29,000  Level Cleveland Center
10:59AM 42.2447 -78.6928 79° East 463 533 29,000  Level Cleveland Center
11:00AM 42.2667 -78.5181 80° East 469 540 29,000  Level Cleveland Center
11:01AM 42.2886 -78.3489 80° East 469 540 29,000  Level Cleveland Center
11:02AM 42.3078 -78.1714 82° East 469 540 29,000  Level Cleveland Center
11:03AM 42.3311 -77.9964 80° East 469 540 29,000  Level Cleveland Center
11:04AM 42.3900 -77.8364 63° Northeast 462 532 29,000  Level Cleveland Center
11:05AM 42.4564 -77.6592 63° Northeast 473 544 29,000  Level Cleveland Center
11:06AM 42.5147 -77.4958 64° Northeast 473 544 29,000  Level Cleveland Center
11:07AM 42.5769 -77.3264 63° Northeast 479 551 29,000  Level Cleveland Center
11:08AM 42.6347 -77.1653 64° Northeast 479 551 29,000  Level Cleveland Center
11:08AM 42.6383 -77.1006 86° East 475 547 29,000  Level Boston Center
11:09AM 42.6456 -76.9206 87° East 493 567 29,000  Level Boston Center
11:10AM 42.6547 -76.7403 86° East 476 548 29,000  Level Boston Center
11:11AM 42.6614 -76.5572 87° East 476 548 29,000  Level Boston Center
11:12AM 42.6700 -76.3742 86° East 476 548 29,000  Level Boston Center
11:13AM 42.6781 -76.1967 86° East 476 548 29,000  Level Boston Center
11:14AM 42.6839 -76.0133 87° East 476 548 29,000  Level Boston Center
11:15AM 42.6917 -75.8272 87° East 476 548 29,000  Level Boston Center
11:16AM 42.6992 -75.6469 87° East 476 548 29,000  Level Boston Center
11:17AM 42.7039 -75.4661 88° East 476 548 29,000  Level Boston Center
11:18AM 42.7089 -75.2828 88° East 476 548 29,000  Level Boston Center
11:19AM 42.7153 -75.0992 87° East 476 548 29,000  Level Boston Center
11:20AM 42.7194 -74.9158 88° East 476 548 29,000  Level Boston Center
11:21AM 42.7233 -74.7350 88° East 481 554 29,000  Level Boston Center
11:22AM 42.7289 -74.5486 88° East 481 554 29,000  Level Boston Center
11:23AM 42.7342 -74.3681 88° East 476 548 29,000  Level Boston Center
11:24AM 42.7372 -74.1842 89° East 476 548 29,000  Level Boston Center
11:25AM 42.7419 -74.0006 88° East 476 548 29,000 -99 Level Boston Center
11:26AM 42.7442 -73.8197 89° East 476 548 28,800 -793 Descending Boston Center
11:27AM 42.7522 -73.6586 86° East 470 541 27,400 -1,438 Descending Boston Center
11:28AM 42.7603 -73.4781 86° East 470 541 25,900 -1,831 Descending Boston Center
11:29AM 42.7683 -73.2828 87° East 475 547 23,800 -2,067 Descending Boston Center
11:30AM 42.7736 -73.1075 88° East 475 547 21,800 -1,377 Descending Boston Center
11:31AM 42.7767 -72.9322 89° East 463 533 21,000 -1,091 Descending Boston Center
11:32AM 42.7833 -72.7711 87° East 453 521 19,600 -1,831 Descending Boston Center
11:33AM 42.7878 -72.6156 88° East 423 487 17,400 -2,471 Descending Boston Center
11:34AM 42.7922 -72.4656 88° East 411 473 14,700 -2,656 Descending Boston Center
11:35AM 42.7964 -72.3214 88° East 392 451 12,000 -2,067 Descending Boston Center
11:36AM 42.8128 -72.1911 80° East 362 417 10,600 -1,261 Descending Boston Center
11:37AM 42.8311 -72.0750 78° East 333 383 9,500 -1,091 Descending Boston Center
11:38AM 42.8600 -71.9783 68° East 311 358 8,400 -1,537 Descending Boston Center
11:39AM 42.9097 -71.8731 57° Northeast 291 335 6,400 -1,636 Descending Boston Center
11:40AM 42.9531 -71.7961 52° Northeast 291 335 5,100 -1,068 Descending Boston Center
11:41AM 42.9983 -71.7019 57° Northeast 272 313 4,300 -555 Descending Boston Center
11:42AM 43.0228 -71.6364 63° Northeast 241 277 4,000 -836 Descending Boston Center
11:43AM 43.0283 -71.5567 85° East 200 230 2,600 -1,109 Descending Boston Center
11:44AM 43.0175 -71.5003 105° East 178 205 1,800 -828 Descending Boston Center